sensor_id;sensor_type;location;lat;lon;timestamp;P1;durP1;ratioP1;P2;durP2;ratioP2
24034;SDS011;12242;50.952;4.678;2022-12-29T00:01:16;2.78;;;0.60;;
24034;SDS011;12242;50.952;4.678;2022-12-29T00:03:46;1.63;;;0.50;;
24034;SDS011;12242;50.952;4.678;2022-12-29T00:06:20;6.03;;;0.70;;
24034;SDS011;12242;50.952;4.678;2022-12-29T00:08:47;0.95;;;0.50;;
24034;SDS011;12242;50.952;4.678;2022-12-29T00:11:20;0.80;;;0.47;;
24034;SDS011;12242;50.952;4.678;2022-12-29T00:13:53;1.05;;;0.60;;
24034;SDS011;12242;50.952;4.678;2022-12-29T00:16:42;1.90;;;0.55;;
24034;SDS011;12242;50.952;4.678;2022-12-29T00:19:11;0.77;;;0.30;;
24034;SDS011;12242;50.952;4.678;2022-12-29T00:21:57;4.72;;;0.40;;
24034;SDS011;12242;50.952;4.678;2022-12-29T00:24:44;3.63;;;0.47;;
24034;SDS011;12242;50.952;4.678;2022-12-29T00:27:31;2.35;;;0.57;;
24034;SDS011;12242;50.952;4.678;2022-12-29T00:30:18;1.38;;;0.30;;
24034;SDS011;12242;50.952;4.678;2022-12-29T00:33:08;1.35;;;0.28;;
24034;SDS011;12242;50.952;4.678;2022-12-29T00:36:21;1.38;;;0.35;;
24034;SDS011;12242;50.952;4.678;2022-12-29T00:39:05;1.95;;;0.43;;
24034;SDS011;12242;50.952;4.678;2022-12-29T00:41:53;0.82;;;0.20;;
24034;SDS011;12242;50.952;4.678;2022-12-29T00:44:39;2.78;;;0.40;;
24034;SDS011;12242;50.952;4.678;2022-12-29T00:47:06;4.18;;;0.40;;
24034;SDS011;12242;50.952;4.678;2022-12-29T00:49:36;1.52;;;0.55;;
24034;SDS011;12242;50.952;4.678;2022-12-29T00:52:04;1.88;;;0.60;;
24034;SDS011;12242;50.952;4.678;2022-12-29T00:54:36;5.40;;;0.40;;
24034;SDS011;12242;50.952;4.678;2022-12-29T00:57:06;1.38;;;0.30;;
24034;SDS011;12242;50.952;4.678;2022-12-29T00:59:35;0.93;;;0.30;;
24034;SDS011;12242;50.952;4.678;2022-12-29T01:02:03;0.75;;;0.43;;
24034;SDS011;12242;50.952;4.678;2022-12-29T01:04:31;1.88;;;0.32;;
24034;SDS011;12242;50.952;4.678;2022-12-29T01:07:04;1.00;;;0.30;;
24034;SDS011;12242;50.952;4.678;2022-12-29T01:09:31;4.85;;;0.40;;
24034;SDS011;12242;50.952;4.678;2022-12-29T01:12:17;1.45;;;0.32;;
24034;SDS011;12242;50.952;4.678;2022-12-29T01:15:05;3.38;;;0.65;;
24034;SDS011;12242;50.952;4.678;2022-12-29T01:17:34;2.08;;;0.47;;
24034;SDS011;12242;50.952;4.678;2022-12-29T01:20:02;3.53;;;0.65;;
24034;SDS011;12242;50.952;4.678;2022-12-29T01:22:32;2.40;;;0.40;;
24034;SDS011;12242;50.952;4.678;2022-12-29T01:24:59;2.67;;;0.50;;
24034;SDS011;12242;50.952;4.678;2022-12-29T01:27:27;1.45;;;0.40;;
24034;SDS011;12242;50.952;4.678;2022-12-29T01:29:54;5.95;;;0.50;;
24034;SDS011;12242;50.952;4.678;2022-12-29T01:32:26;1.45;;;0.40;;
24034;SDS011;12242;50.952;4.678;2022-12-29T01:34:55;1.20;;;0.35;;
24034;SDS011;12242;50.952;4.678;2022-12-29T01:37:25;1.27;;;0.47;;
24034;SDS011;12242;50.952;4.678;2022-12-29T01:39:52;1.38;;;0.38;;
24034;SDS011;12242;50.952;4.678;2022-12-29T01:42:24;2.78;;;0.30;;
24034;SDS011;12242;50.952;4.678;2022-12-29T01:44:57;4.15;;;0.45;;
24034;SDS011;12242;50.952;4.678;2022-12-29T01:52:48;2.30;;;0.40;;
24034;SDS011;12242;50.952;4.678;2022-12-29T01:55:24;2.67;;;0.63;;
24034;SDS011;12242;50.952;4.678;2022-12-29T01:57:56;2.95;;;0.60;;
24034;SDS011;12242;50.952;4.678;2022-12-29T02:00:26;0.57;;;0.30;;
24034;SDS011;12242;50.952;4.678;2022-12-29T02:02:54;1.70;;;0.45;;
24034;SDS011;12242;50.952;4.678;2022-12-29T02:08:12;4.22;;;0.50;;
24034;SDS011;12242;50.952;4.678;2022-12-29T02:10:40;2.65;;;0.50;;
24034;SDS011;12242;50.952;4.678;2022-12-29T02:13:08;0.85;;;0.30;;
24034;SDS011;12242;50.952;4.678;2022-12-29T02:27:26;1.58;;;0.30;;
24034;SDS011;12242;50.952;4.678;2022-12-29T02:40:43;1.42;;;0.20;;
24034;SDS011;12242;50.952;4.678;2022-12-29T02:46:34;1.85;;;0.10;;
24034;SDS011;12242;50.952;4.678;2022-12-29T02:49:10;0.15;;;0.10;;
24034;SDS011;12242;50.952;4.678;2022-12-29T02:52:00;1.88;;;0.30;;
24034;SDS011;12242;50.952;4.678;2022-12-29T02:54:31;0.43;;;0.08;;
24034;SDS011;12242;50.952;4.678;2022-12-29T02:57:12;1.42;;;0.25;;
24034;SDS011;12242;50.952;4.678;2022-12-29T02:59:44;1.08;;;0.15;;
24034;SDS011;12242;50.952;4.678;2022-12-29T03:11:12;1.00;;;0.28;;
24034;SDS011;12242;50.952;4.678;2022-12-29T03:16:54;1.65;;;0.20;;
24034;SDS011;12242;50.952;4.678;2022-12-29T03:19:28;1.13;;;0.28;;
24034;SDS011;12242;50.952;4.678;2022-12-29T03:22:08;0.85;;;0.17;;
24034;SDS011;12242;50.952;4.678;2022-12-29T03:27:42;2.33;;;0.30;;
24034;SDS011;12242;50.952;4.678;2022-12-29T03:30:15;1.48;;;0.20;;
24034;SDS011;12242;50.952;4.678;2022-12-29T03:32:49;2.15;;;0.40;;
24034;SDS011;12242;50.952;4.678;2022-12-29T03:35:22;4.40;;;0.70;;
24034;SDS011;12242;50.952;4.678;2022-12-29T03:40:40;6.32;;;0.45;;
24034;SDS011;12242;50.952;4.678;2022-12-29T03:43:13;0.85;;;0.22;;
24034;SDS011;12242;50.952;4.678;2022-12-29T03:45:43;1.98;;;0.30;;
24034;SDS011;12242;50.952;4.678;2022-12-29T03:48:11;0.57;;;0.20;;
24034;SDS011;12242;50.952;4.678;2022-12-29T03:50:38;1.55;;;0.25;;
24034;SDS011;12242;50.952;4.678;2022-12-29T03:53:06;1.00;;;0.13;;
24034;SDS011;12242;50.952;4.678;2022-12-29T03:55:33;2.08;;;0.20;;
24034;SDS011;12242;50.952;4.678;2022-12-29T03:58:00;0.47;;;0.20;;
24034;SDS011;12242;50.952;4.678;2022-12-29T04:00:28;0.75;;;0.20;;
24034;SDS011;12242;50.952;4.678;2022-12-29T04:02:56;5.47;;;0.30;;
24034;SDS011;12242;50.952;4.678;2022-12-29T04:05:23;1.38;;;0.25;;
24034;SDS011;12242;50.952;4.678;2022-12-29T04:07:53;1.77;;;0.30;;
24034;SDS011;12242;50.952;4.678;2022-12-29T04:10:20;3.28;;;0.30;;
24034;SDS011;12242;50.952;4.678;2022-12-29T04:12:47;3.17;;;0.55;;
24034;SDS011;12242;50.952;4.678;2022-12-29T04:15:15;1.35;;;0.38;;
24034;SDS011;12242;50.952;4.678;2022-12-29T04:17:44;0.63;;;0.25;;
24034;SDS011;12242;50.952;4.678;2022-12-29T04:20:11;2.80;;;0.52;;
24034;SDS011;12242;50.952;4.678;2022-12-29T04:23:01;1.30;;;0.40;;
24034;SDS011;12242;50.952;4.678;2022-12-29T04:25:34;2.67;;;0.40;;
24034;SDS011;12242;50.952;4.678;2022-12-29T04:28:02;4.80;;;0.63;;
24034;SDS011;12242;50.952;4.678;2022-12-29T04:30:29;2.83;;;0.32;;
24034;SDS011;12242;50.952;4.678;2022-12-29T04:33:00;4.18;;;0.47;;
24034;SDS011;12242;50.952;4.678;2022-12-29T04:35:30;1.23;;;0.47;;
24034;SDS011;12242;50.952;4.678;2022-12-29T04:38:02;3.65;;;0.40;;
24034;SDS011;12242;50.952;4.678;2022-12-29T04:40:33;1.48;;;0.30;;
24034;SDS011;12242;50.952;4.678;2022-12-29T04:43:00;2.85;;;0.30;;
24034;SDS011;12242;50.952;4.678;2022-12-29T04:45:28;2.90;;;0.50;;
24034;SDS011;12242;50.952;4.678;2022-12-29T04:47:55;6.15;;;0.70;;
24034;SDS011;12242;50.952;4.678;2022-12-29T04:50:22;2.00;;;0.20;;
24034;SDS011;12242;50.952;4.678;2022-12-29T04:52:49;5.03;;;0.45;;
24034;SDS011;12242;50.952;4.678;2022-12-29T04:55:17;3.05;;;0.50;;
24034;SDS011;12242;50.952;4.678;2022-12-29T04:57:44;2.72;;;0.40;;
24034;SDS011;12242;50.952;4.678;2022-12-29T05:00:13;3.50;;;0.63;;
24034;SDS011;12242;50.952;4.678;2022-12-29T05:02:40;1.33;;;0.30;;
24034;SDS011;12242;50.952;4.678;2022-12-29T05:05:08;8.80;;;0.82;;
24034;SDS011;12242;50.952;4.678;2022-12-29T05:07:36;2.85;;;0.50;;
24034;SDS011;12242;50.952;4.678;2022-12-29T05:10:06;0.88;;;0.30;;
24034;SDS011;12242;50.952;4.678;2022-12-29T05:15:05;3.33;;;0.50;;
24034;SDS011;12242;50.952;4.678;2022-12-29T05:17:36;3.55;;;0.40;;
24034;SDS011;12242;50.952;4.678;2022-12-29T05:20:04;1.42;;;0.43;;
24034;SDS011;12242;50.952;4.678;2022-12-29T05:22:35;5.65;;;0.40;;
24034;SDS011;12242;50.952;4.678;2022-12-29T05:25:03;2.95;;;0.47;;
24034;SDS011;12242;50.952;4.678;2022-12-29T05:27:30;6.13;;;0.50;;
24034;SDS011;12242;50.952;4.678;2022-12-29T05:29:57;1.42;;;0.47;;
24034;SDS011;12242;50.952;4.678;2022-12-29T05:32:25;5.07;;;0.40;;
24034;SDS011;12242;50.952;4.678;2022-12-29T05:34:52;1.80;;;0.55;;
24034;SDS011;12242;50.952;4.678;2022-12-29T05:37:19;8.13;;;0.70;;
24034;SDS011;12242;50.952;4.678;2022-12-29T05:39:49;2.10;;;0.55;;
24034;SDS011;12242;50.952;4.678;2022-12-29T05:42:20;5.13;;;0.80;;
24034;SDS011;12242;50.952;4.678;2022-12-29T05:44:48;3.63;;;0.38;;
24034;SDS011;12242;50.952;4.678;2022-12-29T05:47:18;3.55;;;0.20;;
24034;SDS011;12242;50.952;4.678;2022-12-29T05:49:48;9.05;;;0.63;;
24034;SDS011;12242;50.952;4.678;2022-12-29T05:54:45;3.33;;;0.60;;
24034;SDS011;12242;50.952;4.678;2022-12-29T05:57:12;3.47;;;0.60;;
24034;SDS011;12242;50.952;4.678;2022-12-29T05:59:42;2.50;;;0.52;;
24034;SDS011;12242;50.952;4.678;2022-12-29T06:02:12;3.72;;;0.55;;
24034;SDS011;12242;50.952;4.678;2022-12-29T06:04:39;2.78;;;0.50;;
24034;SDS011;12242;50.952;4.678;2022-12-29T06:07:07;7.53;;;0.77;;
24034;SDS011;12242;50.952;4.678;2022-12-29T06:09:36;7.65;;;0.60;;
24034;SDS011;12242;50.952;4.678;2022-12-29T06:12:06;10.77;;;0.95;;
24034;SDS011;12242;50.952;4.678;2022-12-29T06:14:33;2.65;;;0.57;;
24034;SDS011;12242;50.952;4.678;2022-12-29T06:17:05;3.63;;;0.32;;
24034;SDS011;12242;50.952;4.678;2022-12-29T06:19:35;6.50;;;0.60;;
24034;SDS011;12242;50.952;4.678;2022-12-29T06:22:05;5.25;;;0.73;;
24034;SDS011;12242;50.952;4.678;2022-12-29T06:24:33;6.78;;;0.75;;
24034;SDS011;12242;50.952;4.678;2022-12-29T06:27:03;8.00;;;0.80;;
24034;SDS011;12242;50.952;4.678;2022-12-29T06:29:30;2.13;;;0.38;;
24034;SDS011;12242;50.952;4.678;2022-12-29T06:31:58;1.88;;;0.45;;
24034;SDS011;12242;50.952;4.678;2022-12-29T06:34:28;4.05;;;0.57;;
24034;SDS011;12242;50.952;4.678;2022-12-29T06:36:55;7.68;;;1.08;;
24034;SDS011;12242;50.952;4.678;2022-12-29T06:39:25;2.70;;;0.52;;
24034;SDS011;12242;50.952;4.678;2022-12-29T06:41:54;3.53;;;0.50;;
24034;SDS011;12242;50.952;4.678;2022-12-29T06:44:22;3.63;;;0.52;;
24034;SDS011;12242;50.952;4.678;2022-12-29T06:46:49;7.30;;;1.02;;
24034;SDS011;12242;50.952;4.678;2022-12-29T06:49:17;4.53;;;0.75;;
24034;SDS011;12242;50.952;4.678;2022-12-29T06:51:47;6.18;;;0.88;;
24034;SDS011;12242;50.952;4.678;2022-12-29T06:54:15;5.93;;;0.50;;
24034;SDS011;12242;50.952;4.678;2022-12-29T06:56:44;2.15;;;0.40;;
24034;SDS011;12242;50.952;4.678;2022-12-29T06:59:13;6.57;;;0.70;;
24034;SDS011;12242;50.952;4.678;2022-12-29T07:01:43;7.32;;;0.75;;
24034;SDS011;12242;50.952;4.678;2022-12-29T07:04:11;5.75;;;0.55;;
24034;SDS011;12242;50.952;4.678;2022-12-29T07:06:38;7.72;;;0.82;;
24034;SDS011;12242;50.952;4.678;2022-12-29T07:09:08;3.28;;;0.60;;
24034;SDS011;12242;50.952;4.678;2022-12-29T07:11:36;4.78;;;0.85;;
24034;SDS011;12242;50.952;4.678;2022-12-29T07:14:06;1.90;;;0.43;;
24034;SDS011;12242;50.952;4.678;2022-12-29T07:16:36;4.82;;;0.52;;
24034;SDS011;12242;50.952;4.678;2022-12-29T07:19:04;8.50;;;0.80;;
24034;SDS011;12242;50.952;4.678;2022-12-29T07:21:32;6.50;;;0.68;;
24034;SDS011;12242;50.952;4.678;2022-12-29T07:24:00;3.63;;;0.55;;
24034;SDS011;12242;50.952;4.678;2022-12-29T07:26:27;6.80;;;0.80;;
24034;SDS011;12242;50.952;4.678;2022-12-29T07:29:02;5.85;;;0.73;;
24034;SDS011;12242;50.952;4.678;2022-12-29T07:31:30;5.32;;;0.77;;
24034;SDS011;12242;50.952;4.678;2022-12-29T07:33:58;1.70;;;0.65;;
24034;SDS011;12242;50.952;4.678;2022-12-29T07:36:28;3.65;;;0.70;;
24034;SDS011;12242;50.952;4.678;2022-12-29T07:39:02;4.72;;;0.75;;
24034;SDS011;12242;50.952;4.678;2022-12-29T07:41:30;6.10;;;0.75;;
24034;SDS011;12242;50.952;4.678;2022-12-29T07:43:57;8.25;;;0.85;;
24034;SDS011;12242;50.952;4.678;2022-12-29T07:46:27;5.70;;;0.90;;
24034;SDS011;12242;50.952;4.678;2022-12-29T07:49:16;7.18;;;0.88;;
24034;SDS011;12242;50.952;4.678;2022-12-29T07:51:48;4.38;;;0.77;;
24034;SDS011;12242;50.952;4.678;2022-12-29T07:54:15;6.18;;;0.88;;
24034;SDS011;12242;50.952;4.678;2022-12-29T07:56:45;7.90;;;1.13;;
24034;SDS011;12242;50.952;4.678;2022-12-29T07:59:12;8.02;;;1.00;;
24034;SDS011;12242;50.952;4.678;2022-12-29T08:01:42;4.15;;;0.63;;
24034;SDS011;12242;50.952;4.678;2022-12-29T08:04:10;5.60;;;0.90;;
24034;SDS011;12242;50.952;4.678;2022-12-29T08:06:38;5.90;;;0.65;;
24034;SDS011;12242;50.952;4.678;2022-12-29T08:09:07;7.20;;;1.00;;
24034;SDS011;12242;50.952;4.678;2022-12-29T08:11:43;7.07;;;0.75;;
24034;SDS011;12242;50.952;4.678;2022-12-29T08:14:13;8.75;;;1.08;;
24034;SDS011;12242;50.952;4.678;2022-12-29T08:16:43;3.90;;;0.60;;
24034;SDS011;12242;50.952;4.678;2022-12-29T08:19:13;7.45;;;0.90;;
24034;SDS011;12242;50.952;4.678;2022-12-29T08:21:40;3.50;;;0.60;;
24034;SDS011;12242;50.952;4.678;2022-12-29T08:24:08;6.43;;;0.93;;
24034;SDS011;12242;50.952;4.678;2022-12-29T08:26:36;6.05;;;1.00;;
24034;SDS011;12242;50.952;4.678;2022-12-29T08:29:03;5.80;;;1.05;;
24034;SDS011;12242;50.952;4.678;2022-12-29T08:31:30;9.23;;;0.57;;
24034;SDS011;12242;50.952;4.678;2022-12-29T08:34:00;7.30;;;0.80;;
24034;SDS011;12242;50.952;4.678;2022-12-29T08:36:29;9.38;;;0.93;;
24034;SDS011;12242;50.952;4.678;2022-12-29T08:38:57;6.22;;;0.75;;
24034;SDS011;12242;50.952;4.678;2022-12-29T08:41:29;6.65;;;0.80;;
24034;SDS011;12242;50.952;4.678;2022-12-29T08:43:59;5.15;;;0.80;;
24034;SDS011;12242;50.952;4.678;2022-12-29T08:46:26;10.10;;;0.75;;
24034;SDS011;12242;50.952;4.678;2022-12-29T08:48:56;4.28;;;0.52;;
24034;SDS011;12242;50.952;4.678;2022-12-29T08:51:26;7.00;;;0.77;;
24034;SDS011;12242;50.952;4.678;2022-12-29T08:53:53;4.00;;;0.60;;
24034;SDS011;12242;50.952;4.678;2022-12-29T08:56:21;7.35;;;0.70;;
24034;SDS011;12242;50.952;4.678;2022-12-29T08:58:50;5.47;;;0.77;;
24034;SDS011;12242;50.952;4.678;2022-12-29T09:01:18;3.33;;;0.68;;
24034;SDS011;12242;50.952;4.678;2022-12-29T09:03:48;8.13;;;0.73;;
24034;SDS011;12242;50.952;4.678;2022-12-29T09:06:36;4.60;;;0.45;;
24034;SDS011;12242;50.952;4.678;2022-12-29T09:09:06;11.30;;;1.30;;
24034;SDS011;12242;50.952;4.678;2022-12-29T09:11:33;2.95;;;0.70;;
24034;SDS011;12242;50.952;4.678;2022-12-29T09:14:01;5.88;;;0.98;;
24034;SDS011;12242;50.952;4.678;2022-12-29T09:16:31;8.98;;;0.75;;
24034;SDS011;12242;50.952;4.678;2022-12-29T09:18:59;7.63;;;0.82;;
24034;SDS011;12242;50.952;4.678;2022-12-29T09:21:27;3.60;;;0.80;;
24034;SDS011;12242;50.952;4.678;2022-12-29T09:23:57;9.18;;;0.93;;
24034;SDS011;12242;50.952;4.678;2022-12-29T09:26:27;3.55;;;0.90;;
24034;SDS011;12242;50.952;4.678;2022-12-29T09:28:59;13.38;;;1.52;;
24034;SDS011;12242;50.952;4.678;2022-12-29T09:31:29;11.32;;;0.82;;
24034;SDS011;12242;50.952;4.678;2022-12-29T09:34:01;7.90;;;0.85;;
24034;SDS011;12242;50.952;4.678;2022-12-29T09:36:28;5.63;;;0.90;;
24034;SDS011;12242;50.952;4.678;2022-12-29T09:38:58;5.28;;;0.40;;
24034;SDS011;12242;50.952;4.678;2022-12-29T09:47:15;10.23;;;1.20;;
24034;SDS011;12242;50.952;4.678;2022-12-29T09:49:52;5.63;;;0.60;;
24034;SDS011;12242;50.952;4.678;2022-12-29T09:52:35;8.13;;;0.80;;
24034;SDS011;12242;50.952;4.678;2022-12-29T09:55:13;7.07;;;1.23;;
24034;SDS011;12242;50.952;4.678;2022-12-29T09:57:54;7.90;;;0.82;;
24034;SDS011;12242;50.952;4.678;2022-12-29T10:03:32;7.80;;;0.93;;
24034;SDS011;12242;50.952;4.678;2022-12-29T10:06:13;9.38;;;1.17;;
24034;SDS011;12242;50.952;4.678;2022-12-29T10:08:50;5.38;;;0.80;;
24034;SDS011;12242;50.952;4.678;2022-12-29T10:12:06;6.10;;;0.98;;
24034;SDS011;12242;50.952;4.678;2022-12-29T10:15:02;7.55;;;0.98;;
24034;SDS011;12242;50.952;4.678;2022-12-29T10:17:50;8.48;;;0.88;;
24034;SDS011;12242;50.952;4.678;2022-12-29T10:26:00;5.22;;;0.60;;
24034;SDS011;12242;50.952;4.678;2022-12-29T10:28:37;4.93;;;0.60;;
24034;SDS011;12242;50.952;4.678;2022-12-29T10:31:11;7.35;;;0.95;;
24034;SDS011;12242;50.952;4.678;2022-12-29T10:33:43;5.50;;;0.70;;
24034;SDS011;12242;50.952;4.678;2022-12-29T10:36:17;5.13;;;0.90;;
24034;SDS011;12242;50.952;4.678;2022-12-29T10:38:49;6.15;;;0.70;;
24034;SDS011;12242;50.952;4.678;2022-12-29T10:41:40;4.95;;;0.70;;
24034;SDS011;12242;50.952;4.678;2022-12-29T10:44:13;9.30;;;0.85;;
24034;SDS011;12242;50.952;4.678;2022-12-29T10:46:44;4.07;;;1.00;;
24034;SDS011;12242;50.952;4.678;2022-12-29T10:49:20;3.72;;;0.90;;
24034;SDS011;12242;50.952;4.678;2022-12-29T10:51:48;8.27;;;0.85;;
24034;SDS011;12242;50.952;4.678;2022-12-29T10:54:23;9.10;;;1.10;;
24034;SDS011;12242;50.952;4.678;2022-12-29T10:57:19;7.18;;;0.98;;
24034;SDS011;12242;50.952;4.678;2022-12-29T10:59:52;8.40;;;1.40;;
24034;SDS011;12242;50.952;4.678;2022-12-29T11:05:05;7.30;;;1.60;;
24034;SDS011;12242;50.952;4.678;2022-12-29T11:07:56;7.20;;;0.90;;
24034;SDS011;12242;50.952;4.678;2022-12-29T11:10:38;4.82;;;1.20;;
24034;SDS011;12242;50.952;4.678;2022-12-29T11:13:15;6.82;;;0.82;;
24034;SDS011;12242;50.952;4.678;2022-12-29T11:15:48;10.15;;;1.05;;
24034;SDS011;12242;50.952;4.678;2022-12-29T11:21:05;6.82;;;1.10;;
24034;SDS011;12242;50.952;4.678;2022-12-29T11:23:55;4.43;;;0.98;;
24034;SDS011;12242;50.952;4.678;2022-12-29T11:26:26;5.22;;;0.77;;
24034;SDS011;12242;50.952;4.678;2022-12-29T11:31:49;5.75;;;0.77;;
24034;SDS011;12242;50.952;4.678;2022-12-29T11:34:41;4.50;;;0.77;;
24034;SDS011;12242;50.952;4.678;2022-12-29T11:37:25;6.70;;;1.00;;
24034;SDS011;12242;50.952;4.678;2022-12-29T11:40:17;8.43;;;1.13;;
24034;SDS011;12242;50.952;4.678;2022-12-29T11:42:53;5.13;;;0.80;;
24034;SDS011;12242;50.952;4.678;2022-12-29T11:45:26;7.40;;;1.05;;
24034;SDS011;12242;50.952;4.678;2022-12-29T11:48:07;6.30;;;1.10;;
24034;SDS011;12242;50.952;4.678;2022-12-29T11:50:39;4.00;;;1.20;;
24034;SDS011;12242;50.952;4.678;2022-12-29T11:55:51;5.13;;;0.93;;
24034;SDS011;12242;50.952;4.678;2022-12-29T11:58:31;5.30;;;0.98;;
24034;SDS011;12242;50.952;4.678;2022-12-29T12:01:07;5.20;;;0.98;;
24034;SDS011;12242;50.952;4.678;2022-12-29T12:03:45;5.40;;;0.77;;
24034;SDS011;12242;50.952;4.678;2022-12-29T12:06:22;7.22;;;1.02;;
24034;SDS011;12242;50.952;4.678;2022-12-29T12:08:55;5.97;;;0.95;;
24034;SDS011;12242;50.952;4.678;2022-12-29T12:11:28;5.35;;;1.00;;
24034;SDS011;12242;50.952;4.678;2022-12-29T12:17:05;6.22;;;0.75;;
24034;SDS011;12242;50.952;4.678;2022-12-29T12:22:36;6.18;;;1.25;;
24034;SDS011;12242;50.952;4.678;2022-12-29T12:25:20;6.18;;;1.23;;
24034;SDS011;12242;50.952;4.678;2022-12-29T12:30:23;9.18;;;1.10;;
24034;SDS011;12242;50.952;4.678;2022-12-29T12:35:36;7.63;;;1.20;;
24034;SDS011;12242;50.952;4.678;2022-12-29T12:44:03;8.77;;;0.90;;
24034;SDS011;12242;50.952;4.678;2022-12-29T12:56:21;5.43;;;0.90;;
24034;SDS011;12242;50.952;4.678;2022-12-29T13:02:17;4.40;;;0.98;;
24034;SDS011;12242;50.952;4.678;2022-12-29T13:11:07;6.78;;;0.95;;
24034;SDS011;12242;50.952;4.678;2022-12-29T13:16:13;2.72;;;0.80;;
24034;SDS011;12242;50.952;4.678;2022-12-29T13:22:07;10.02;;;1.00;;
24034;SDS011;12242;50.952;4.678;2022-12-29T13:30:23;4.45;;;0.90;;
24034;SDS011;12242;50.952;4.678;2022-12-29T13:36:00;4.07;;;0.80;;
24034;SDS011;12242;50.952;4.678;2022-12-29T13:38:38;6.93;;;0.80;;
24034;SDS011;12242;50.952;4.678;2022-12-29T13:41:12;7.00;;;0.88;;
24034;SDS011;12242;50.952;4.678;2022-12-29T13:43:45;2.83;;;0.70;;
24034;SDS011;12242;50.952;4.678;2022-12-29T13:46:23;5.55;;;0.90;;
24034;SDS011;12242;50.952;4.678;2022-12-29T13:49:34;3.30;;;0.68;;
24034;SDS011;12242;50.952;4.678;2022-12-29T13:51:58;3.47;;;0.55;;
24034;SDS011;12242;50.952;4.678;2022-12-29T13:54:42;6.45;;;0.70;;
24034;SDS011;12242;50.952;4.678;2022-12-29T13:57:59;2.90;;;0.63;;
24034;SDS011;12242;50.952;4.678;2022-12-29T14:01:02;5.18;;;1.05;;
24034;SDS011;12242;50.952;4.678;2022-12-29T14:03:41;6.88;;;0.88;;
24034;SDS011;12242;50.952;4.678;2022-12-29T14:06:18;8.88;;;0.95;;
24034;SDS011;12242;50.952;4.678;2022-12-29T14:08:47;8.73;;;0.85;;
24034;SDS011;12242;50.952;4.678;2022-12-29T14:11:20;6.95;;;1.02;;
24034;SDS011;12242;50.952;4.678;2022-12-29T14:13:53;5.65;;;1.17;;
24034;SDS011;12242;50.952;4.678;2022-12-29T14:16:32;8.48;;;1.38;;
24034;SDS011;12242;50.952;4.678;2022-12-29T14:22:00;7.03;;;0.93;;
24034;SDS011;12242;50.952;4.678;2022-12-29T14:32:49;7.53;;;1.00;;
24034;SDS011;12242;50.952;4.678;2022-12-29T14:35:00;6.25;;;0.80;;
24034;SDS011;12242;50.952;4.678;2022-12-29T14:37:49;6.18;;;0.90;;
24034;SDS011;12242;50.952;4.678;2022-12-29T14:40:35;13.50;;;1.25;;
24034;SDS011;12242;50.952;4.678;2022-12-29T14:43:05;7.03;;;1.10;;
24034;SDS011;12242;50.952;4.678;2022-12-29T14:45:47;5.88;;;0.90;;
24034;SDS011;12242;50.952;4.678;2022-12-29T14:48:21;7.78;;;1.45;;
24034;SDS011;12242;50.952;4.678;2022-12-29T14:51:00;7.10;;;1.27;;
24034;SDS011;12242;50.952;4.678;2022-12-29T14:53:47;4.03;;;0.77;;
24034;SDS011;12242;50.952;4.678;2022-12-29T14:56:17;1.40;;;0.50;;
24034;SDS011;12242;50.952;4.678;2022-12-29T15:04:17;4.07;;;0.68;;
24034;SDS011;12242;50.952;4.678;2022-12-29T15:06:48;6.65;;;0.80;;
24034;SDS011;12242;50.952;4.678;2022-12-29T15:09:33;4.50;;;0.75;;
24034;SDS011;12242;50.952;4.678;2022-12-29T15:14:56;2.38;;;0.75;;
24034;SDS011;12242;50.952;4.678;2022-12-29T15:17:31;3.63;;;0.50;;
24034;SDS011;12242;50.952;4.678;2022-12-29T15:20:01;8.77;;;0.93;;
24034;SDS011;12242;50.952;4.678;2022-12-29T15:22:53;2.35;;;0.60;;
24034;SDS011;12242;50.952;4.678;2022-12-29T15:25:22;3.70;;;0.50;;
24034;SDS011;12242;50.952;4.678;2022-12-29T15:27:54;3.15;;;0.60;;
24034;SDS011;12242;50.952;4.678;2022-12-29T15:30:29;4.55;;;0.73;;
24034;SDS011;12242;50.952;4.678;2022-12-29T15:32:59;2.55;;;0.70;;
24034;SDS011;12242;50.952;4.678;2022-12-29T15:35:33;7.35;;;0.52;;
24034;SDS011;12242;50.952;4.678;2022-12-29T15:38:15;5.28;;;0.70;;
24034;SDS011;12242;50.952;4.678;2022-12-29T15:40:59;5.35;;;0.50;;
24034;SDS011;12242;50.952;4.678;2022-12-29T15:43:40;3.38;;;0.43;;
24034;SDS011;12242;50.952;4.678;2022-12-29T15:46:30;3.15;;;0.63;;
24034;SDS011;12242;50.952;4.678;2022-12-29T15:48:58;5.32;;;0.82;;
24034;SDS011;12242;50.952;4.678;2022-12-29T15:53:58;3.47;;;0.50;;
24034;SDS011;12242;50.952;4.678;2022-12-29T15:56:30;2.15;;;0.50;;
24034;SDS011;12242;50.952;4.678;2022-12-29T15:58:59;2.00;;;0.47;;
24034;SDS011;12242;50.952;4.678;2022-12-29T16:01:33;5.20;;;0.90;;
24034;SDS011;12242;50.952;4.678;2022-12-29T16:04:08;8.55;;;0.90;;
24034;SDS011;12242;50.952;4.678;2022-12-29T16:06:37;6.95;;;0.88;;
24034;SDS011;12242;50.952;4.678;2022-12-29T16:09:15;8.32;;;1.00;;
24034;SDS011;12242;50.952;4.678;2022-12-29T16:11:45;7.50;;;1.30;;
24034;SDS011;12242;50.952;4.678;2022-12-29T16:14:24;5.93;;;0.95;;
24034;SDS011;12242;50.952;4.678;2022-12-29T16:16:59;6.20;;;0.90;;
24034;SDS011;12242;50.952;4.678;2022-12-29T16:19:35;6.15;;;1.05;;
24034;SDS011;12242;50.952;4.678;2022-12-29T16:22:28;3.97;;;0.90;;
24034;SDS011;12242;50.952;4.678;2022-12-29T16:25:04;6.15;;;1.10;;
24034;SDS011;12242;50.952;4.678;2022-12-29T16:27:44;4.28;;;0.95;;
24034;SDS011;12242;50.952;4.678;2022-12-29T16:30:24;7.85;;;1.25;;
24034;SDS011;12242;50.952;4.678;2022-12-29T16:33:04;4.10;;;0.90;;
24034;SDS011;12242;50.952;4.678;2022-12-29T16:35:39;8.00;;;1.20;;
24034;SDS011;12242;50.952;4.678;2022-12-29T16:40:51;5.30;;;1.00;;
24034;SDS011;12242;50.952;4.678;2022-12-29T16:43:21;9.60;;;1.40;;
24034;SDS011;12242;50.952;4.678;2022-12-29T16:48:46;12.33;;;1.47;;
24034;SDS011;12242;50.952;4.678;2022-12-29T16:51:23;6.00;;;1.33;;
24034;SDS011;12242;50.952;4.678;2022-12-29T16:53:58;8.00;;;1.95;;
24034;SDS011;12242;50.952;4.678;2022-12-29T16:56:27;8.48;;;1.25;;
24034;SDS011;12242;50.952;4.678;2022-12-29T16:59:04;7.03;;;1.27;;
24034;SDS011;12242;50.952;4.678;2022-12-29T17:01:36;12.18;;;1.60;;
24034;SDS011;12242;50.952;4.678;2022-12-29T17:04:08;9.70;;;1.55;;
24034;SDS011;12242;50.952;4.678;2022-12-29T17:06:37;8.60;;;1.70;;
24034;SDS011;12242;50.952;4.678;2022-12-29T17:09:24;11.45;;;2.38;;
24034;SDS011;12242;50.952;4.678;2022-12-29T17:11:55;9.10;;;1.73;;
24034;SDS011;12242;50.952;4.678;2022-12-29T17:17:37;13.13;;;2.33;;
24034;SDS011;12242;50.952;4.678;2022-12-29T17:22:41;9.55;;;1.25;;
24034;SDS011;12242;50.952;4.678;2022-12-29T17:25:14;13.73;;;2.00;;
24034;SDS011;12242;50.952;4.678;2022-12-29T17:27:46;13.90;;;1.90;;
24034;SDS011;12242;50.952;4.678;2022-12-29T17:30:21;12.32;;;1.67;;
24034;SDS011;12242;50.952;4.678;2022-12-29T17:33:00;11.40;;;1.48;;
24034;SDS011;12242;50.952;4.678;2022-12-29T17:35:31;12.40;;;1.77;;
24034;SDS011;12242;50.952;4.678;2022-12-29T17:38:01;8.55;;;1.65;;
24034;SDS011;12242;50.952;4.678;2022-12-29T17:40:29;9.55;;;1.48;;
24034;SDS011;12242;50.952;4.678;2022-12-29T17:42:59;12.05;;;1.70;;
24034;SDS011;12242;50.952;4.678;2022-12-29T17:45:30;9.57;;;1.58;;
24034;SDS011;12242;50.952;4.678;2022-12-29T17:47:58;11.10;;;1.73;;
24034;SDS011;12242;50.952;4.678;2022-12-29T17:50:28;11.70;;;1.90;;
24034;SDS011;12242;50.952;4.678;2022-12-29T17:53:14;8.55;;;1.52;;
24034;SDS011;12242;50.952;4.678;2022-12-29T17:55:46;11.93;;;1.85;;
24034;SDS011;12242;50.952;4.678;2022-12-29T17:58:18;8.70;;;1.80;;
24034;SDS011;12242;50.952;4.678;2022-12-29T18:00:46;10.95;;;1.85;;
24034;SDS011;12242;50.952;4.678;2022-12-29T18:06:14;5.97;;;1.50;;
24034;SDS011;12242;50.952;4.678;2022-12-29T18:08:42;12.85;;;2.00;;
24034;SDS011;12242;50.952;4.678;2022-12-29T18:11:15;10.63;;;1.77;;
24034;SDS011;12242;50.952;4.678;2022-12-29T18:13:53;6.13;;;1.27;;